Time;durP1;ratioP1;P1;durP2;ratioP2;P2;SDS_P1;SDS_P2;PMS_P1;PMS_P2;Temp;Humidity;BMP_temperature;BMP_pressure;BME280_temperature;BME280_humidity;BME280_pressure;Samples;Min_cycle;Max_cycle;Signal;HPM_P1;HPM_P2
2021/12/08 00:01:43;;;;;;;64.50;30.60;;;;;;;-2.93;98.00;96252.67;107448;1285;36677;-76
2021/12/08 00:04:13;;;;;;;62.40;29.20;;;;;;;-2.89;97.88;96243.23;107535;1284;30345;-76
2021/12/08 00:06:42;;;;;;;63.40;30.00;;;;;;;-2.89;97.94;96241.40;107473;1284;42242;-76
2021/12/08 00:09:26;;;;;;;68.60;30.00;;;;;;;-2.89;97.96;96239.89;107498;1284;41838;-76
2021/12/08 00:14:41;;;;;;;72.60;31.80;;;;;;;-2.95;97.59;96233.60;107534;1282;38280;-76
2021/12/08 00:17:10;;;;;;;62.80;28.00;;;;;;;-3.06;97.51;96221.33;107597;1284;29325;-76
2021/12/08 00:19:39;;;;;;;64.00;29.20;;;;;;;-3.05;97.65;96224.56;107614;1285;37935;-76
2021/12/08 00:22:10;;;;;;;63.30;28.80;;;;;;;-3.01;97.82;96233.11;107627;1284;32754;-76
2021/12/08 00:24:40;;;;;;;53.80;24.80;;;;;;;-2.97;97.89;96238.38;107560;1284;45676;-76
2021/12/08 00:27:13;;;;;;;54.00;26.30;;;;;;;-2.95;97.77;96241.55;107538;1285;37419;-76
2021/12/08 00:29:42;;;;;;;59.20;25.10;;;;;;;-2.93;97.74;96240.15;107464;1285;41602;-76
2021/12/08 00:32:11;;;;;;;64.50;27.60;;;;;;;-2.93;97.79;96238.19;107516;1284;44490;-76
2021/12/08 00:34:40;;;;;;;55.90;26.20;;;;;;;-2.93;97.72;96242.13;107513;1284;40891;-75
2021/12/08 00:37:10;;;;;;;55.00;25.90;;;;;;;-2.92;97.65;96242.21;107510;1285;33840;-75
2021/12/08 00:39:39;;;;;;;58.00;25.50;;;;;;;-2.90;97.74;96249.70;107534;1285;40017;-75
2021/12/08 00:42:08;;;;;;;49.60;23.70;;;;;;;-2.90;97.72;96248.48;107580;1284;34562;-76
2021/12/08 00:44:38;;;;;;;62.70;27.50;;;;;;;-2.92;97.61;96250.35;107603;1284;36979;-76
2021/12/08 00:47:08;;;;;;;54.10;24.80;;;;;;;-2.94;97.49;96248.64;107613;1284;40580;-76
2021/12/08 00:49:39;;;;;;;63.60;26.50;;;;;;;-2.95;97.49;96249.17;107480;1286;39481;-76
2021/12/08 00:52:09;;;;;;;54.50;25.70;;;;;;;-2.95;97.55;96250.16;107468;1285;40615;-76
2021/12/08 00:54:38;;;;;;;56.20;25.60;;;;;;;-2.96;97.52;96248.44;107504;1285;41477;-75
2021/12/08 00:57:07;;;;;;;52.30;23.10;;;;;;;-2.96;97.47;96257.92;107503;1285;42870;-75
2021/12/08 00:59:36;;;;;;;56.90;25.70;;;;;;;-2.95;97.42;96256.19;107410;1287;40956;-76
2021/12/08 01:02:06;;;;;;;51.80;24.00;;;;;;;-2.94;97.48;96251.77;107466;1284;32133;-76
2021/12/08 01:04:35;;;;;;;52.50;24.80;;;;;;;-2.92;97.49;96252.99;107405;1285;54383;-76
2021/12/08 01:07:05;;;;;;;53.80;24.90;;;;;;;-2.91;97.46;96247.80;107460;1284;35737;-76
2021/12/08 01:09:34;;;;;;;57.20;25.20;;;;;;;-2.90;97.55;96249.59;107451;1284;41472;-76
2021/12/08 01:12:05;;;;;;;59.50;24.60;;;;;;;-2.90;97.45;96248.86;107453;1284;34289;-75
2021/12/08 01:14:39;;;;;;;54.30;23.10;;;;;;;-2.89;97.33;96247.31;107428;1285;41462;-76
2021/12/08 01:17:09;;;;;;;55.50;24.50;;;;;;;-2.90;97.22;96241.80;107620;1284;31977;-76
2021/12/08 01:19:38;;;;;;;58.10;24.20;;;;;;;-2.92;97.28;96239.15;107524;1285;48983;-76
2021/12/08 01:22:07;;;;;;;49.20;23.50;;;;;;;-2.92;97.19;96231.88;107516;1285;38920;-75
2021/12/08 01:24:36;;;;;;;56.80;23.90;;;;;;;-2.92;97.17;96233.99;107588;1285;32783;-76
2021/12/08 01:27:05;;;;;;;47.60;22.40;;;;;;;-2.93;97.22;96235.48;107557;1284;33933;-76
2021/12/08 01:29:34;;;;;;;46.60;23.50;;;;;;;-2.94;97.18;96237.28;107428;1285;40283;-75
2021/12/08 01:32:07;;;;;;;46.40;21.60;;;;;;;-2.94;97.10;96236.67;107450;1284;36258;-76
2021/12/08 01:34:36;;;;;;;49.40;23.20;;;;;;;-2.95;97.05;96234.00;107412;1285;42574;-76
2021/12/08 01:37:05;;;;;;;49.60;22.60;;;;;;;-2.97;97.18;96237.30;107463;1285;38048;-76
2021/12/08 01:39:34;;;;;;;43.00;19.90;;;;;;;-2.96;96.99;96239.14;107548;1283;36999;-76
2021/12/08 01:42:05;;;;;;;43.10;19.90;;;;;;;-2.96;96.98;96232.32;107433;1285;38316;-76
2021/12/08 01:47:20;;;;;;;38.30;18.50;;;;;;;-3.01;96.95;96225.46;107538;1284;35645;-76
2021/12/08 01:49:49;;;;;;;44.70;19.60;;;;;;;-3.01;96.91;96230.01;107406;1284;43890;-76
2021/12/08 01:52:18;;;;;;;37.80;17.90;;;;;;;-3.03;96.83;96225.39;107477;1284;39276;-76
2021/12/08 01:54:48;;;;;;;39.30;19.20;;;;;;;-3.03;96.74;96220.48;107528;1282;38331;-75
2021/12/08 01:57:17;;;;;;;40.60;17.70;;;;;;;-3.03;96.64;96223.16;107449;1284;59211;-76
2021/12/08 01:59:46;;;;;;;38.90;17.10;;;;;;;-3.03;96.71;96220.77;107423;1284;40383;-76
2021/12/08 02:02:15;;;;;;;34.10;17.50;;;;;;;-3.02;96.65;96220.23;107446;1284;44917;-76
2021/12/08 02:04:44;;;;;;;39.40;18.20;;;;;;;-3.01;96.57;96222.11;107534;1284;31865;-75
2021/12/08 02:07:13;;;;;;;37.30;17.40;;;;;;;-3.01;96.51;96222.47;107425;1284;38055;-76
2021/12/08 02:09:43;;;;;;;40.10;17.80;;;;;;;-3.01;96.42;96219.36;107489;1282;35568;-76
2021/12/08 02:12:12;;;;;;;31.50;16.50;;;;;;;-3.00;96.42;96212.25;107479;1284;43967;-76
2021/12/08 02:14:41;;;;;;;34.70;15.10;;;;;;;-3.00;96.39;96214.13;107473;1284;41585;-76
2021/12/08 02:17:10;;;;;;;30.90;14.50;;;;;;;-3.03;96.27;96210.75;107534;1283;34914;-76
2021/12/08 02:19:40;;;;;;;35.50;17.00;;;;;;;-3.03;96.13;96209.23;107594;1283;38125;-76
2021/12/08 02:22:08;;;;;;;37.80;17.10;;;;;;;-3.04;96.19;96207.77;107446;1284;38898;-75
2021/12/08 02:24:37;;;;;;;34.90;15.90;;;;;;;-3.04;96.14;96205.73;107519;1284;44847;-75
2021/12/08 02:27:06;;;;;;;35.50;17.80;;;;;;;-3.05;96.13;96203.02;107432;1284;40066;-76
2021/12/08 02:29:40;;;;;;;37.20;16.80;;;;;;;-3.04;96.14;96200.30;107537;1284;34706;-75
2021/12/08 02:32:25;;;;;;;34.70;16.70;;;;;;;-3.05;96.09;96202.54;107494;1285;40041;-76
2021/12/08 02:48:56;;;;;;;33.20;15.90;;;;;;;-3.08;96.02;96181.02;107448;1284;40857;-76
2021/12/08 02:51:25;;;;;;;33.70;14.70;;;;;;;-3.09;95.95;96179.09;107520;1284;43124;-76
2021/12/08 02:53:54;;;;;;;30.50;15.20;;;;;;;-3.09;96.08;96173.06;107454;1284;40622;-76
2021/12/08 02:56:23;;;;;;;32.80;16.60;;;;;;;-3.09;95.95;96169.08;107447;1284;41109;-76
2021/12/08 02:58:52;;;;;;;32.40;16.00;;;;;;;-3.11;96.10;96173.42;107416;1284;30176;-76
2021/12/08 03:01:21;;;;;;;35.20;16.90;;;;;;;-3.11;96.02;96183.02;107445;1284;43147;-76
2021/12/08 03:03:50;;;;;;;30.60;15.10;;;;;;;-3.12;96.06;96185.11;107464;1284;35239;-76
2021/12/08 03:06:20;;;;;;;32.60;17.60;;;;;;;-3.10;95.90;96175.10;107429;1284;36885;-76
2021/12/08 03:08:50;;;;;;;34.00;16.40;;;;;;;-3.10;96.12;96166.27;107461;1285;38046;-76
2021/12/08 03:11:20;;;;;;;29.30;14.90;;;;;;;-3.11;95.96;96162.37;107439;1285;39943;-76
2021/12/08 03:14:06;;;;;;;32.80;15.10;;;;;;;-3.14;95.94;96157.03;107473;1284;39363;-76
2021/12/08 03:16:37;;;;;;;30.70;14.60;;;;;;;-3.15;95.94;96161.11;107505;1284;30879;-76
2021/12/08 03:19:07;;;;;;;30.30;14.40;;;;;;;-3.14;96.05;96167.84;107448;1282;38308;-76
2021/12/08 03:21:36;;;;;;;29.90;14.60;;;;;;;-3.14;95.97;96167.64;107490;1285;31515;-76
2021/12/08 03:24:19;;;;;;;29.40;14.60;;;;;;;-3.14;95.84;96163.66;107410;1284;41784;-76
2021/12/08 03:26:54;;;;;;;35.00;14.20;;;;;;;-3.16;95.85;96153.10;107500;1284;40080;-77
2021/12/08 03:29:32;;;;;;;23.80;12.30;;;;;;;-3.19;95.58;96148.29;107557;1282;34939;-76
2021/12/08 03:32:07;;;;;;;24.10;11.50;;;;;;;-3.22;95.61;96144.59;107399;1284;34474;-76
2021/12/08 03:34:39;;;;;;;24.90;11.30;;;;;;;-3.23;95.56;96145.94;107422;1284;42272;-76
2021/12/08 03:37:09;;;;;;;24.50;12.10;;;;;;;-3.26;95.38;96146.20;107508;1284;40636;-76
2021/12/08 03:39:41;;;;;;;31.80;11.60;;;;;;;-3.27;95.30;96144.23;107516;1282;43028;-76
2021/12/08 03:42:12;;;;;;;23.60;10.40;;;;;;;-3.31;95.21;96141.04;107483;1284;52118;-76
2021/12/08 03:44:39;;;;;;;;;;;;;;;-3.34;95.04;96140.15;107507;1284;35947;-76
2021/12/08 03:47:14;;;;;;;23.50;11.20;;;;;;;-3.36;94.97;96140.31;107537;1281;31788;-76
2021/12/08 03:49:45;;;;;;;22.90;9.90;;;;;;;-3.35;95.05;96132.13;107423;1285;39544;-76
2021/12/08 03:52:14;;;;;;;20.80;9.90;;;;;;;-3.35;95.02;96134.01;107372;1283;55483;-76
2021/12/08 03:54:43;;;;;;;20.10;10.30;;;;;;;-3.35;95.13;96135.88;107405;1285;35040;-76
2021/12/08 03:57:12;;;;;;;19.30;10.40;;;;;;;-3.36;94.91;96137.23;107522;1284;32222;-76
2021/12/08 03:59:41;;;;;;;18.60;9.40;;;;;;;-3.38;94.80;96143.09;107496;1284;39572;-76
2021/12/08 04:02:10;;;;;;;19.50;10.80;;;;;;;-3.40;94.74;96144.23;107518;1282;35135;-76
2021/12/08 04:04:44;;;;;;;16.10;7.00;;;;;;;-3.39;94.85;96137.58;107563;1282;39894;-76
2021/12/08 04:07:15;;;;;;;19.50;9.10;;;;;;;-3.40;94.68;96128.90;107556;1284;36772;-76
2021/12/08 04:09:47;;;;;;;17.90;8.80;;;;;;;-3.40;94.72;96125.30;107596;1284;36247;-76
2021/12/08 04:12:20;;;;;;;19.50;8.70;;;;;;;-3.40;94.74;96127.21;107445;1284;39533;-76
2021/12/08 04:14:55;;;;;;;19.70;10.10;;;;;;;-3.42;94.52;96125.23;107439;1284;31633;-76
2021/12/08 04:17:28;;;;;;;16.60;8.70;;;;;;;-3.44;94.50;96119.14;107631;1284;30898;-76
2021/12/08 04:19:58;;;;;;;22.00;9.40;;;;;;;-3.46;94.39;96116.32;107453;1282;38529;-76
2021/12/08 04:22:32;;;;;;;20.20;9.80;;;;;;;-3.47;94.33;96109.38;107373;1284;32104;-76
2021/12/08 04:25:05;;;;;;;19.80;9.50;;;;;;;-3.49;94.43;96099.44;107338;1284;43346;-75
2021/12/08 04:27:36;;;;;;;17.80;8.90;;;;;;;-3.50;94.35;96097.80;107559;1284;31552;-76
2021/12/08 04:30:10;;;;;;;17.70;8.20;;;;;;;-3.50;94.28;96098.88;107426;1285;55489;-76
2021/12/08 04:32:39;;;;;;;22.40;8.60;;;;;;;-3.53;94.32;96096.78;107714;1284;38953;-76
2021/12/08 04:35:10;;;;;;;16.50;7.80;;;;;;;-3.55;94.12;96093.84;107493;1281;38479;-76
2021/12/08 04:37:45;;;;;;;21.90;8.90;;;;;;;-3.56;94.20;96086.52;107527;1284;37006;-75
2021/12/08 04:40:25;;;;;;;17.10;9.00;;;;;;;-3.59;94.08;96078.76;107566;1284;38098;-75
2021/12/08 04:43:05;;;;;;;16.90;8.10;;;;;;;-3.65;93.91;96066.05;107543;1284;38120;-75
2021/12/08 04:45:50;;;;;;;16.60;8.00;;;;;;;-3.71;93.82;96058.64;107515;1284;42299;-75
2021/12/08 04:48:34;;;;;;;18.40;8.80;;;;;;;-3.76;93.85;96060.46;107617;1281;40621;-76
2021/12/08 04:51:22;;;;;;;18.00;9.20;;;;;;;-3.78;93.95;96069.15;107470;1285;29096;-76
2021/12/08 05:00:13;;;;;;;16.20;8.80;;;;;;;-3.79;94.00;96070.66;107559;1284;37702;-76
2021/12/08 05:02:50;;;;;;;22.90;10.00;;;;;;;-3.84;93.96;96075.98;107379;1285;44181;-76
2021/12/08 05:05:25;;;;;;;18.10;9.00;;;;;;;-3.89;93.88;96078.72;107407;1284;39786;-76
2021/12/08 05:07:57;;;;;;;21.50;10.10;;;;;;;-3.92;93.92;96083.26;107392;1284;38095;-76
2021/12/08 05:10:30;;;;;;;17.70;9.50;;;;;;;-3.96;93.86;96094.48;107419;1282;41505;-76
2021/12/08 05:13:01;;;;;;;22.80;9.80;;;;;;;-4.00;93.92;96098.51;107512;1283;47262;-76
2021/12/08 05:15:34;;;;;;;19.00;7.90;;;;;;;-4.04;93.74;96107.80;107380;1285;39955;-76
2021/12/08 05:18:14;;;;;;;18.00;9.00;;;;;;;-4.06;93.76;96117.55;107432;1284;38452;-76
2021/12/08 05:20:47;;;;;;;19.20;9.00;;;;;;;-4.06;93.62;96120.22;107462;1285;28783;-76
2021/12/08 05:23:22;;;;;;;22.20;8.60;;;;;;;-4.09;93.75;96125.19;107408;1284;55607;-76
2021/12/08 05:25:52;;;;;;;23.60;9.80;;;;;;;-4.12;93.55;96123.83;107430;1285;35135;-76
2021/12/08 05:28:26;;;;;;;22.00;9.50;;;;;;;-4.14;93.52;96122.55;107425;1284;41266;-76
2021/12/08 05:30:59;;;;;;;16.40;8.40;;;;;;;-4.18;93.46;96120.73;107461;1283;39942;-76
2021/12/08 05:33:29;;;;;;;14.30;8.30;;;;;;;-4.21;93.41;96126.58;107443;1285;38943;-76
2021/12/08 05:35:59;;;;;;;18.20;9.50;;;;;;;-4.25;93.41;96133.80;107546;1284;38827;-76
2021/12/08 05:38:27;;;;;;;;;;;;;;;-4.25;93.48;96134.67;107452;1283;33197;-75
2021/12/08 05:41:07;;;;;;;17.80;8.60;;;;;;;-4.26;93.48;96135.23;107388;1285;41108;-76
2021/12/08 05:43:35;;;;;;;;;;;;;;;-4.27;93.53;96137.51;106263;1284;1647140;-76
2021/12/08 05:46:04;;;;;;;17.60;9.30;;;;;;;-4.25;93.59;96137.02;107428;1284;33581;-76
2021/12/08 05:48:35;;;;;;;20.50;10.80;;;;;;;-4.21;93.71;96134.83;107394;1284;45412;-76
2021/12/08 05:51:08;;;;;;;23.00;10.20;;;;;;;-4.16;93.74;96136.02;107448;1285;37990;-76
2021/12/08 05:53:43;;;;;;;20.10;10.00;;;;;;;-4.14;93.79;96138.48;107505;1285;33429;-76
2021/12/08 05:56:14;;;;;;;24.40;10.90;;;;;;;-4.12;93.91;96136.53;107483;1285;40251;-76
2021/12/08 05:58:44;;;;;;;20.50;9.90;;;;;;;-4.10;93.87;96132.54;107505;1284;67932;-76
2021/12/08 06:01:19;;;;;;;19.20;10.40;;;;;;;-4.11;93.72;96127.93;107475;1284;40922;-76
2021/12/08 06:03:50;;;;;;;18.30;9.90;;;;;;;-4.15;93.76;96122.75;107370;1284;42150;-76
2021/12/08 06:06:22;;;;;;;20.80;10.60;;;;;;;-4.20;93.64;96122.84;107406;1284;46852;-76
2021/12/08 06:08:53;;;;;;;19.50;10.70;;;;;;;-4.27;93.40;96125.48;107490;1282;38119;-76
2021/12/08 06:11:24;;;;;;;19.80;10.60;;;;;;;-4.36;93.17;96126.63;107422;1285;42422;-76
2021/12/08 06:13:59;;;;;;;23.70;10.60;;;;;;;-4.39;93.32;96124.45;107443;1285;33122;-75
2021/12/08 06:16:29;;;;;;;25.40;11.20;;;;;;;-4.42;93.32;96122.79;107680;1285;34502;-76
2021/12/08 06:18:58;;;;;;;29.00;12.90;;;;;;;-4.51;93.23;96122.82;107492;1281;42774;-76
2021/12/08 06:21:30;;;;;;;29.70;15.00;;;;;;;-4.60;93.21;96125.73;107531;1282;58372;-76
2021/12/08 06:24:03;;;;;;;28.50;13.40;;;;;;;-4.61;93.29;96127.92;107406;1284;31167;-75
2021/12/08 06:26:32;;;;;;;27.30;13.10;;;;;;;-4.61;93.05;96130.52;107563;1281;36564;-76
2021/12/08 06:29:04;;;;;;;24.50;12.00;;;;;;;-4.61;93.33;96130.20;107411;1281;33360;-76
2021/12/08 06:31:35;;;;;;;20.30;11.30;;;;;;;-4.59;93.35;96137.88;107385;1284;62474;-76
2021/12/08 06:34:04;;;;;;;19.70;11.10;;;;;;;-4.59;93.24;96137.63;107480;1282;30925;-76
2021/12/08 06:36:36;;;;;;;18.50;9.00;;;;;;;-4.59;92.98;96137.52;107379;1281;55194;-76
2021/12/08 06:39:08;;;;;;;26.50;12.50;;;;;;;-4.65;92.99;96132.20;107445;1284;47374;-76
2021/12/08 06:41:40;;;;;;;27.50;13.90;;;;;;;-4.66;92.90;96126.02;107413;1284;57751;-75
2021/12/08 06:44:12;;;;;;;24.00;12.70;;;;;;;-4.68;92.96;96116.75;107431;1285;45441;-76
2021/12/08 06:46:42;;;;;;;23.20;12.50;;;;;;;-4.73;92.82;96117.10;107478;1281;55827;-76
2021/12/08 06:49:11;;;;;;;;;;;;;;;-4.75;92.82;96120.80;107590;1284;37175;-75
2021/12/08 06:51:43;;;;;;;28.60;15.60;;;;;;;-4.71;92.74;96121.29;107562;1282;37064;-76
2021/12/08 06:54:17;;;;;;;28.60;14.40;;;;;;;-4.64;92.75;96117.09;107496;1284;44710;-76
2021/12/08 06:56:53;;;;;;;33.80;16.20;;;;;;;-4.67;92.67;96107.13;107460;1285;34626;-76
2021/12/08 06:59:26;;;;;;;26.10;12.40;;;;;;;-4.72;92.37;96100.23;107360;1284;36532;-75
2021/12/08 07:02:03;;;;;;;26.40;13.10;;;;;;;-4.68;92.30;96094.44;107396;1285;37265;-76
2021/12/08 07:04:51;;;;;;;28.20;13.60;;;;;;;-4.66;92.18;96091.49;107410;1284;39602;-75
2021/12/08 07:07:22;;;;;;;35.30;19.10;;;;;;;-4.68;92.07;96086.80;107381;1284;59171;-75
2021/12/08 07:09:55;;;;;;;40.00;20.20;;;;;;;-4.66;92.11;96082.70;107416;1284;35210;-75
2021/12/08 07:12:31;;;;;;;47.20;22.90;;;;;;;-4.62;92.29;96073.98;107576;1281;38963;-75
2021/12/08 07:15:05;;;;;;;36.10;18.20;;;;;;;-4.58;92.14;96066.58;107555;1284;31178;-75
2021/12/08 07:17:36;;;;;;;34.50;17.50;;;;;;;-4.53;92.19;96062.71;107384;1284;84027;-75
2021/12/08 07:20:18;;;;;;;29.60;16.10;;;;;;;-4.47;92.11;96061.35;107403;1284;43445;-75
2021/12/08 07:22:50;;;;;;;31.10;17.00;;;;;;;-4.38;92.06;96062.86;107360;1285;47611;-75
2021/12/08 07:25:23;;;;;;;30.80;14.80;;;;;;;-4.27;92.18;96068.48;107446;1284;40701;-75
2021/12/08 07:27:54;;;;;;;30.70;15.10;;;;;;;-4.15;92.15;96063.66;107411;1285;40416;-75
2021/12/08 07:30:26;;;;;;;28.60;14.00;;;;;;;-3.91;92.27;96052.90;107456;1285;29680;-75
2021/12/08 07:32:55;;;;;;;24.40;13.60;;;;;;;-3.61;92.36;96048.52;107249;1285;180378;-75
2021/12/08 07:35:28;;;;;;;28.80;13.50;;;;;;;-3.37;92.36;96046.97;107430;1284;35779;-75
2021/12/08 07:37:58;;;;;;;24.50;12.50;;;;;;;-2.92;92.39;96047.87;107347;1285;62644;-75
2021/12/08 07:40:30;;;;;;;25.80;12.50;;;;;;;-2.54;92.20;96051.33;107471;1285;31101;-75
2021/12/08 07:43:01;;;;;;;21.10;12.30;;;;;;;-2.35;91.87;96052.88;107420;1285;36210;-75
2021/12/08 07:45:36;;;;;;;20.90;10.30;;;;;;;-2.27;91.25;96053.23;107424;1285;38884;-75
2021/12/08 07:48:08;;;;;;;20.40;10.70;;;;;;;-2.21;90.87;96055.61;107412;1285;61997;-75
2021/12/08 07:50:49;;;;;;;22.30;11.10;;;;;;;-2.16;90.75;96054.20;107672;1284;30393;-75
2021/12/08 07:53:21;;;;;;;19.70;10.20;;;;;;;-2.20;90.15;96054.30;107347;1284;46062;-75
2021/12/08 07:55:54;;;;;;;17.40;9.70;;;;;;;-2.25;90.06;96051.52;107446;1285;30651;-75
2021/12/08 07:58:23;;;;;;;19.60;10.50;;;;;;;-2.35;89.52;96054.59;107370;1285;44544;-75
2021/12/08 08:00:57;;;;;;;21.90;10.80;;;;;;;-2.40;89.70;96055.57;107446;1285;30551;-75
2021/12/08 08:03:28;;;;;;;21.40;10.30;;;;;;;-2.35;89.79;96053.88;107354;1284;49682;-75
2021/12/08 08:05:59;;;;;;;22.50;10.40;;;;;;;-2.40;89.82;96055.06;107386;1283;35182;-75
2021/12/08 08:08:31;;;;;;;18.60;10.10;;;;;;;-2.46;89.68;96053.52;107388;1285;37832;-75
2021/12/08 08:11:03;;;;;;;18.70;10.00;;;;;;;-2.48;89.69;96051.21;107385;1285;42679;-75
2021/12/08 08:13:33;;;;;;;21.10;10.30;;;;;;;-2.45;89.83;96051.70;107459;1284;36203;-75
2021/12/08 08:16:06;;;;;;;13.80;7.10;;;;;;;-2.40;89.99;96051.47;107496;1284;49073;-75
2021/12/08 08:18:43;;;;;;;20.10;9.70;;;;;;;-2.32;89.87;96051.61;107523;1284;34310;-75
2021/12/08 08:21:16;;;;;;;18.60;9.80;;;;;;;-2.23;90.09;96049.32;107540;1284;38103;-75
2021/12/08 08:23:46;;;;;;;18.30;10.70;;;;;;;-2.14;90.24;96052.88;107415;1284;37049;-75
2021/12/08 08:26:15;;;;;;;;;;;;;;;-2.07;90.17;96056.32;107541;1281;39625;-75
2021/12/08 08:28:50;;;;;;;19.40;9.60;;;;;;;-2.05;89.78;96059.44;107393;1284;39321;-75
2021/12/08 08:31:23;;;;;;;19.70;9.40;;;;;;;-1.96;89.53;96058.33;107430;1284;41024;-75
2021/12/08 08:33:52;;;;;;;20.90;10.70;;;;;;;-1.80;89.85;96061.52;107412;1285;38389;-75
2021/12/08 08:36:25;;;;;;;21.90;10.80;;;;;;;-1.66;89.71;96063.70;107454;1284;43665;-77
2021/12/08 08:38:58;;;;;;;20.50;10.10;;;;;;;-1.51;89.71;96060.20;107527;1282;32585;-75
2021/12/08 08:41:31;;;;;;;21.40;11.20;;;;;;;-1.39;89.37;96064.39;107508;1284;44128;-75
2021/12/08 08:44:04;;;;;;;20.70;11.40;;;;;;;-1.26;89.08;96063.98;107552;1284;32714;-75
2021/12/08 08:46:38;;;;;;;21.90;11.40;;;;;;;-1.21;88.88;96069.39;107509;1284;32024;-75
2021/12/08 08:49:13;;;;;;;21.90;11.40;;;;;;;-1.16;88.68;96069.91;107567;1284;39822;-75
2021/12/08 08:51:47;;;;;;;25.80;12.60;;;;;;;-1.08;88.59;96069.73;107575;1284;38757;-75
2021/12/08 08:54:21;;;;;;;24.50;12.10;;;;;;;-0.92;88.28;96068.11;107456;1284;37381;-75
2021/12/08 08:56:55;;;;;;;24.80;12.40;;;;;;;-1.05;87.57;96062.02;107514;1284;37547;-75
2021/12/08 08:59:29;;;;;;;26.70;13.50;;;;;;;-1.28;87.30;96062.32;107504;1284;39929;-75
2021/12/08 09:01:59;;;;;;;25.10;12.50;;;;;;;-1.33;87.10;96064.97;107573;1284;40838;-75
2021/12/08 09:04:33;;;;;;;25.00;13.90;;;;;;;-1.46;86.99;96065.75;107579;1281;33437;-75
2021/12/08 09:07:05;;;;;;;26.30;13.70;;;;;;;-1.48;87.38;96068.96;107462;1281;39268;-75
2021/12/08 09:09:36;;;;;;;22.60;11.80;;;;;;;-1.39;87.78;96065.71;107681;1284;31464;-75
2021/12/08 09:12:10;;;;;;;21.30;11.40;;;;;;;-1.35;87.73;96060.63;107485;1284;36914;-75
2021/12/08 09:14:43;;;;;;;26.90;12.10;;;;;;;-1.37;87.48;96064.14;107555;1284;36345;-75
2021/12/08 09:17:15;;;;;;;25.40;12.80;;;;;;;-1.45;87.32;96057.36;107576;1282;37734;-76
2021/12/08 09:19:49;;;;;;;26.80;13.10;;;;;;;-1.65;86.82;96052.09;107504;1282;34945;-76
2021/12/08 09:22:27;;;;;;;24.60;13.00;;;;;;;-1.80;86.82;96044.85;107521;1285;33541;-76
2021/12/08 09:24:59;;;;;;;21.00;11.60;;;;;;;-1.80;87.13;96045.73;107404;1285;38486;-75
2021/12/08 09:27:35;;;;;;;25.80;13.20;;;;;;;-1.75;87.29;96042.95;107461;1284;32805;-76
2021/12/08 09:30:10;;;;;;;21.80;11.60;;;;;;;-1.61;88.00;96043.90;107387;1285;42242;-76
2021/12/08 09:32:44;;;;;;;21.60;11.00;;;;;;;-1.59;87.80;96042.55;107473;1285;39047;-76
2021/12/08 09:35:18;;;;;;;23.50;12.30;;;;;;;-1.53;87.94;96033.77;107482;1284;33888;-76
2021/12/08 09:37:50;;;;;;;23.50;12.00;;;;;;;-1.45;87.86;96032.50;106192;1284;1669985;-76
2021/12/08 09:40:28;;;;;;;21.90;11.40;;;;;;;-1.29;87.97;96030.73;107453;1284;39144;-76
2021/12/08 09:43:01;;;;;;;23.50;12.30;;;;;;;-1.23;87.91;96031.63;107434;1285;40376;-76
2021/12/08 09:45:34;;;;;;;23.90;12.70;;;;;;;-1.31;87.28;96033.94;107429;1285;37547;-76
2021/12/08 09:48:05;;;;;;;27.50;13.50;;;;;;;-1.41;87.02;96033.77;107395;1281;45766;-76
2021/12/08 09:50:36;;;;;;;21.30;12.90;;;;;;;-1.43;86.86;96030.94;107437;1281;36243;-75
2021/12/08 09:53:07;;;;;;;24.00;13.60;;;;;;;-1.39;87.31;96039.05;107400;1285;33288;-75
2021/12/08 09:55:37;;;;;;;26.20;14.10;;;;;;;-1.47;87.14;96039.15;107396;1285;39396;-76
2021/12/08 09:58:07;;;;;;;26.30;14.70;;;;;;;-1.69;86.34;96036.86;107605;1284;33218;-76
2021/12/08 10:00:40;;;;;;;28.70;15.10;;;;;;;-1.96;86.13;96036.77;107497;1284;36418;-76
2021/12/08 10:03:09;;;;;;;27.30;15.30;;;;;;;-2.16;86.31;96028.89;107540;1285;38511;-75
2021/12/08 10:05:41;;;;;;;27.60;14.40;;;;;;;-2.36;86.38;96026.54;107365;1285;40636;-76
2021/12/08 10:08:11;;;;;;;24.50;12.80;;;;;;;-2.47;86.48;96023.17;107521;1285;32742;-75
2021/12/08 10:10:42;;;;;;;26.10;15.30;;;;;;;-2.61;86.61;96025.67;107459;1284;41344;-75
2021/12/08 10:13:12;;;;;;;25.50;14.10;;;;;;;-2.74;86.56;96028.21;107562;1284;37542;-76
2021/12/08 10:15:41;;;;;;;21.00;12.40;;;;;;;-2.74;87.07;96035.80;107546;1284;29764;-75
2021/12/08 10:18:12;;;;;;;23.80;13.30;;;;;;;-2.81;86.86;96042.06;107488;1284;36730;-75
2021/12/08 10:20:44;;;;;;;23.00;13.80;;;;;;;-2.81;87.18;96038.71;107530;1285;30456;-76
2021/12/08 10:23:17;;;;;;;24.20;13.70;;;;;;;-2.71;87.49;96035.58;107511;1285;34446;-76
2021/12/08 10:25:49;;;;;;;28.00;12.60;;;;;;;-2.68;87.57;96042.11;107530;1284;37879;-75
2021/12/08 10:28:21;;;;;;;23.70;12.30;;;;;;;-2.57;87.64;96042.08;107433;1285;33216;-76
2021/12/08 10:30:53;;;;;;;22.70;13.10;;;;;;;-2.57;87.32;96037.49;107498;1282;41062;-75
2021/12/08 10:33:50;;;;;;;20.10;11.40;;;;;;;-2.71;86.99;96028.52;107522;1284;36672;-75
2021/12/08 10:36:43;;;;;;;24.40;12.20;;;;;;;-2.74;87.36;96020.79;107431;1283;36827;-75
2021/12/08 10:39:16;;;;;;;28.60;15.30;;;;;;;-2.62;87.61;96018.58;107576;1284;37934;-75
2021/12/08 10:42:07;;;;;;;19.80;12.60;;;;;;;-2.69;87.43;96014.85;107499;1285;31075;-75
2021/12/08 10:44:42;;;;;;;24.40;12.50;;;;;;;-2.57;88.11;96009.47;107442;1284;35502;-75
2021/12/08 10:47:12;;;;;;;20.30;11.60;;;;;;;-2.36;88.25;96002.89;107515;1281;37863;-76
2021/12/08 10:55:27;;;;;;;19.00;10.90;;;;;;;-2.12;87.84;95989.17;107516;1284;36585;-75
2021/12/08 10:57:56;;;;;;;18.70;9.90;;;;;;;-2.07;87.69;95989.98;107423;1285;40846;-75
2021/12/08 11:00:29;;;;;;;27.10;12.50;;;;;;;-2.11;87.35;95986.35;107448;1284;33155;-75
2021/12/08 11:03:00;;;;;;;24.00;13.10;;;;;;;-2.08;87.64;95982.02;107463;1285;34607;-75
2021/12/08 11:05:36;;;;;;;18.50;11.10;;;;;;;-2.02;87.55;95979.18;107441;1285;29345;-75
2021/12/08 11:08:16;;;;;;;25.70;12.40;;;;;;;-1.98;87.56;95981.50;107425;1285;43275;-75
2021/12/08 11:10:49;;;;;;;19.60;10.20;;;;;;;-1.94;87.54;95983.19;107414;1285;37082;-75
2021/12/08 11:13:22;;;;;;;22.30;12.20;;;;;;;-2.01;87.13;95983.77;107461;1285;36079;-75
2021/12/08 11:16:01;;;;;;;24.00;13.60;;;;;;;-2.10;87.00;95980.52;107412;1285;37873;-75
2021/12/08 11:18:31;;;;;;;19.50;11.60;;;;;;;-2.07;87.18;95977.73;107423;1282;40186;-76
2021/12/08 11:21:05;;;;;;;23.40;11.40;;;;;;;-2.02;87.47;95974.30;107481;1285;44882;-75
2021/12/08 11:23:40;;;;;;;21.40;11.50;;;;;;;-1.96;87.46;95968.63;107360;1284;49953;-76
2021/12/08 11:26:19;;;;;;;22.00;10.80;;;;;;;-1.90;87.52;95966.29;107618;1284;31295;-75
2021/12/08 11:28:59;;;;;;;23.00;12.30;;;;;;;-1.90;87.29;95967.28;107516;1284;32720;-75
2021/12/08 11:31:32;;;;;;;;;;;;;;;-1.93;87.20;95967.55;107510;1282;31101;-75
2021/12/08 11:34:04;;;;;;;24.30;12.60;;;;;;;-1.99;86.98;95966.38;107390;1285;43200;-75
2021/12/08 11:36:36;;;;;;;21.60;12.30;;;;;;;-2.03;87.05;95960.92;107442;1281;41891;-75
2021/12/08 11:39:13;;;;;;;27.90;13.20;;;;;;;-2.03;87.02;95953.95;107462;1285;51031;-75
2021/12/08 11:41:47;;;;;;;22.10;12.50;;;;;;;-1.97;87.41;95956.64;107477;1285;35191;-75
2021/12/08 11:44:19;;;;;;;25.40;12.90;;;;;;;-1.93;87.44;95953.13;107461;1285;32459;-75
2021/12/08 11:46:51;;;;;;;23.90;13.60;;;;;;;-1.89;87.25;95949.01;107416;1285;32533;-75
2021/12/08 11:49:20;;;;;;;21.50;12.20;;;;;;;-1.82;87.45;95947.57;107521;1284;34002;-75
2021/12/08 11:52:01;;;;;;;22.50;13.00;;;;;;;-1.81;87.40;95946.45;107405;1285;40980;-75
2021/12/08 11:54:34;;;;;;;20.40;11.50;;;;;;;-2.01;86.66;95944.10;107498;1285;31772;-75
2021/12/08 11:57:10;;;;;;;30.40;15.90;;;;;;;-2.04;86.67;95939.59;107423;1285;28647;-75
2021/12/08 11:59:54;;;;;;;27.30;13.60;;;;;;;-2.12;86.81;95939.24;107484;1285;40974;-75
2021/12/08 12:02:27;;;;;;;25.10;12.40;;;;;;;-2.05;87.11;95935.11;107389;1285;38083;-75
2021/12/08 12:04:57;;;;;;;25.50;12.70;;;;;;;-2.02;87.11;95929.33;107431;1285;30578;-75
2021/12/08 12:07:26;;;;;;;23.90;12.90;;;;;;;-1.95;87.38;95924.59;107455;1285;36106;-75